createdAt,value
2022-10-18T00:00:49.990Z,24.92
2022-10-18T00:03:52.555Z,24.35
2022-10-18T00:06:54.767Z,24.05
2022-10-18T00:09:57.308Z,23.98
2022-10-18T00:12:59.547Z,26.52
2022-10-18T00:16:04.727Z,33.33
2022-10-18T00:19:07.007Z,28.48
2022-10-18T00:22:09.449Z,24.35
2022-10-18T00:25:11.682Z,23.92
2022-10-18T00:28:14.180Z,23.17
2022-10-18T00:31:23.219Z,21.23
2022-10-18T00:34:25.824Z,24.33
2022-10-18T01:24:32.159Z,27.70
2022-10-18T01:31:18.983Z,25.90
2022-10-18T01:34:24.284Z,30.77
2022-10-18T01:37:29.584Z,26.70
2022-10-18T01:40:35.463Z,24.37
2022-10-18T01:43:39.825Z,21.27
2022-10-18T01:46:44.155Z,23.50
2022-10-18T01:52:51.185Z,21.23
2022-10-18T01:56:04.726Z,24.70
2022-10-18T01:59:36.135Z,27.35
2022-10-18T02:02:49.231Z,24.67
2022-10-18T02:05:58.727Z,20.12
2022-10-18T02:09:11.162Z,20.85
2022-10-18T02:12:15.647Z,23.62
2022-10-18T02:15:23.148Z,20.80
2022-10-18T02:18:36.045Z,19.00
2022-10-18T02:21:40.932Z,23.12
2022-10-18T02:24:49.332Z,20.48
2022-10-18T02:27:52.496Z,19.12
2022-10-18T02:31:06.476Z,17.65
2022-10-18T02:34:29.616Z,19.75
2022-10-18T02:37:38.708Z,24.92
2022-10-18T02:40:41.217Z,19.80
2022-10-18T02:43:43.695Z,19.77
2022-10-18T02:46:46.785Z,21.10
2022-10-18T02:49:49.260Z,25.30
2022-10-18T02:52:51.528Z,22.65
2022-10-18T02:55:54.030Z,20.52
2022-10-18T02:58:56.420Z,24.05
2022-10-18T03:01:58.890Z,21.20
2022-10-18T03:05:01.132Z,24.75
2022-10-18T03:08:03.842Z,19.33
2022-10-18T03:11:06.627Z,24.27
2022-10-18T03:14:09.122Z,20.60
2022-10-18T03:17:11.463Z,21.10
2022-10-18T03:20:14.023Z,18.75
2022-10-18T03:23:16.254Z,17.17
2022-10-18T03:26:18.739Z,16.77
2022-10-18T03:29:21.012Z,17.45
2022-10-18T03:32:23.492Z,24.23
2022-10-18T03:35:25.893Z,16.98
2022-10-18T03:38:28.402Z,20.73
2022-10-18T03:41:30.856Z,22.08
2022-10-18T03:44:33.402Z,21.15
2022-10-18T03:47:35.628Z,21.85
2022-10-18T03:50:38.421Z,19.70
2022-10-18T03:53:40.653Z,20.65
2022-10-18T03:56:45.486Z,16.90
2022-10-18T03:59:48.785Z,18.05
2022-10-18T04:02:53.494Z,16.85
2022-10-18T04:06:00.583Z,17.70
2022-10-18T04:09:04.272Z,20.15
2022-10-18T04:12:09.158Z,15.93
2022-10-18T04:15:11.395Z,21.35
2022-10-18T04:18:13.900Z,20.08
2022-10-18T04:21:16.312Z,25.67
2022-10-18T04:24:19.040Z,18.08
2022-10-18T04:27:21.312Z,21.83
2022-10-18T04:30:23.853Z,19.15
2022-10-18T04:33:26.064Z,18.52
2022-10-18T04:36:28.562Z,20.75
2022-10-18T04:39:30.851Z,23.70
2022-10-18T04:42:33.837Z,21.42
2022-10-18T04:45:36.109Z,21.83
2022-10-18T04:48:38.897Z,21.85
2022-10-18T04:51:41.070Z,29.98
2022-10-18T04:54:43.602Z,27.08
2022-10-18T04:57:45.907Z,25.27
2022-10-18T05:00:48.642Z,22.90
2022-10-18T05:03:55.154Z,18.90
2022-10-18T05:06:57.640Z,22.87
2022-10-18T05:09:59.910Z,20.85
2022-10-18T05:13:03.371Z,19.00
2022-10-18T05:16:06.362Z,21.67
2022-10-18T05:19:09.901Z,20.37
2022-10-18T05:22:12.104Z,25.90
2022-10-18T05:25:14.813Z,23.65
2022-10-18T05:28:41.741Z,20.48
2022-10-18T05:31:39.686Z,24.23
2022-10-18T05:34:41.891Z,22.70
2022-10-18T05:37:44.367Z,25.30
2022-10-18T05:40:46.709Z,24.00
2022-10-18T05:43:49.251Z,22.13
2022-10-18T05:46:51.906Z,25.77
2022-10-18T05:49:54.385Z,20.20
2022-10-18T05:53:02.741Z,21.95
2022-10-18T05:56:15.227Z,24.05
2022-10-18T05:59:17.518Z,26.83
2022-10-18T06:02:20.131Z,23.73
2022-10-18T06:05:25.673Z,28.65
2022-10-18T06:08:27.954Z,33.83
2022-10-18T06:11:31.344Z,24.35
2022-10-18T06:14:33.719Z,26.50
2022-10-18T06:17:36.380Z,26.70
2022-10-18T06:20:38.927Z,28.08
2022-10-18T06:23:47.447Z,22.52
2022-10-18T06:26:50.071Z,23.12
2022-10-18T06:29:52.813Z,29.95
2022-10-18T06:33:01.428Z,23.83
2022-10-18T06:36:10.310Z,28.92
2022-10-18T06:39:12.585Z,40.50
2022-10-18T06:42:16.952Z,27.45
2022-10-18T06:45:21.409Z,28.15
2022-10-18T06:48:24.583Z,26.73
2022-10-18T06:51:28.830Z,30.52
2022-10-18T06:54:31.547Z,32.60
2022-10-18T06:57:33.789Z,32.30
2022-10-18T07:00:36.432Z,25.35
2022-10-18T07:03:38.819Z,28.27
2022-10-18T07:06:41.489Z,23.02
2022-10-18T07:09:46.046Z,24.08
2022-10-18T07:12:48.660Z,27.62
2022-10-18T07:16:00.839Z,29.00
2022-10-18T07:19:03.817Z,29.20
2022-10-18T07:22:06.056Z,23.45
2022-10-18T07:25:09.362Z,26.40
2022-10-18T07:28:11.644Z,22.80
2022-10-18T07:31:14.659Z,26.55
2022-10-18T07:34:16.954Z,21.15
2022-10-18T07:37:19.434Z,21.33
2022-10-18T07:40:21.879Z,20.88
2022-10-18T07:43:24.904Z,24.33
2022-10-18T07:46:27.592Z,20.00
2022-10-18T07:49:30.103Z,27.17
2022-10-18T07:52:32.341Z,25.55
2022-10-18T07:55:35.000Z,26.17
2022-10-18T07:58:37.485Z,18.67
2022-10-18T08:01:40.110Z,18.30
2022-10-18T08:04:42.708Z,25.67
2022-10-18T08:07:44.956Z,19.83
2022-10-18T08:10:47.621Z,21.20
2022-10-18T08:13:50.699Z,34.20
2022-10-18T08:20:11.841Z,19.65
2022-10-18T08:23:15.008Z,21.90
2022-10-18T08:26:20.285Z,19.97
2022-10-18T08:29:25.847Z,19.42
2022-10-18T08:32:30.592Z,27.83
2022-10-18T08:35:33.489Z,16.80
2022-10-18T08:38:37.440Z,27.15
2022-10-18T08:41:51.834Z,23.75
2022-10-18T08:44:54.829Z,16.73
2022-10-18T08:47:58.051Z,19.85
2022-10-18T08:51:01.593Z,11.68
2022-10-18T08:54:10.902Z,16.83
2022-10-18T08:57:15.948Z,10.80
2022-10-18T09:00:28.342Z,11.12
2022-10-18T09:03:52.582Z,12.90
2022-10-18T09:07:18.396Z,18.25
2022-10-18T09:10:41.827Z,15.45
2022-10-18T09:13:58.454Z,9.82
2022-10-18T09:17:16.323Z,11.35
2022-10-18T09:20:49.908Z,12.52
2022-10-18T09:24:13.370Z,13.75
2022-10-18T09:27:18.555Z,9.85
2022-10-18T09:30:42.459Z,19.90
2022-10-18T09:34:03.010Z,17.48
2022-10-18T09:37:19.711Z,16.90
2022-10-18T09:40:30.653Z,13.80
2022-10-18T09:43:59.710Z,10.95
2022-10-18T09:47:14.626Z,10.80
2022-10-18T09:50:42.502Z,13.55
2022-10-18T09:53:55.753Z,10.18
2022-10-18T09:57:05.883Z,10.90
2022-10-18T10:00:23.138Z,8.80
2022-10-18T10:03:26.025Z,11.55
2022-10-18T10:06:35.817Z,6.90
2022-10-18T10:09:47.558Z,14.02
2022-10-18T10:13:22.278Z,10.93
2022-10-18T10:16:27.110Z,12.02
2022-10-18T10:20:16.865Z,12.02
2022-10-18T10:23:41.228Z,14.60
2022-10-18T10:26:47.193Z,10.55
2022-10-18T10:29:56.480Z,13.18
2022-10-18T10:32:59.782Z,9.73
2022-10-18T10:36:06.086Z,8.73
2022-10-18T10:39:16.334Z,10.60
2022-10-18T10:42:18.973Z,12.10
2022-10-18T10:45:25.386Z,7.25
2022-10-18T10:48:33.783Z,9.73
2022-10-18T10:51:38.674Z,8.90
2022-10-18T10:54:50.425Z,9.48
2022-10-18T10:57:56.408Z,22.48
2022-10-18T11:01:26.768Z,15.30
2022-10-18T11:04:32.413Z,8.38
2022-10-18T11:07:41.082Z,7.35
2022-10-18T11:10:56.405Z,12.18
2022-10-18T11:14:25.758Z,12.88
2022-10-18T11:17:39.594Z,8.85
2022-10-18T11:20:46.757Z,13.98
2022-10-18T11:23:51.430Z,8.43
2022-10-18T11:27:04.997Z,13.70
2022-10-18T11:30:25.727Z,13.20
2022-10-18T11:34:08.592Z,12.63
2022-10-18T11:37:56.638Z,10.33
2022-10-18T11:41:09.441Z,9.38
2022-10-18T11:44:29.200Z,13.10
2022-10-18T11:47:44.794Z,8.57
2022-10-18T11:51:05.689Z,13.65
2022-10-18T11:54:29.864Z,11.27
2022-10-18T12:00:49.299Z,10.50
2022-10-18T12:04:02.260Z,7.18
2022-10-18T12:07:07.522Z,7.32
2022-10-18T12:10:26.170Z,14.32
2022-10-18T12:14:30.729Z,11.43
2022-10-18T12:17:43.924Z,7.32
2022-10-18T12:20:54.662Z,12.37
2022-10-18T12:24:18.801Z,9.57
2022-10-18T12:27:34.203Z,7.25
2022-10-18T12:30:57.698Z,8.13
2022-10-18T12:34:10.737Z,7.05
2022-10-18T12:37:44.501Z,10.98
2022-10-18T12:40:52.053Z,9.32
2022-10-18T12:44:19.819Z,9.30
2022-10-18T12:47:24.584Z,7.45
2022-10-18T12:50:39.691Z,6.20
2022-10-18T12:53:45.945Z,12.77
2022-10-18T12:56:48.608Z,6.65
2022-10-18T12:59:51.147Z,8.43
2022-10-18T13:03:13.540Z,9.32
2022-10-18T13:06:16.012Z,6.80
2022-10-18T13:09:21.565Z,8.40
2022-10-18T13:12:23.955Z,10.02
2022-10-18T13:16:02.169Z,9.23
2022-10-18T13:19:23.718Z,4.72
2022-10-18T13:22:35.387Z,10.73
2022-10-18T13:26:22.935Z,9.50
2022-10-18T13:29:54.730Z,6.72
2022-10-18T13:33:42.246Z,12.55
2022-10-18T13:36:44.777Z,9.55
2022-10-18T13:39:47.952Z,7.15
2022-10-18T13:42:50.726Z,10.30
2022-10-18T13:45:56.235Z,10.05
2022-10-18T13:49:17.287Z,7.47
2022-10-18T13:52:47.534Z,5.45
2022-10-18T13:59:25.164Z,5.10
2022-10-18T14:02:50.982Z,5.45
2022-10-18T14:06:20.114Z,6.28
2022-10-18T14:09:40.305Z,9.50
2022-10-18T14:12:54.793Z,8.98
2022-10-18T14:16:05.961Z,6.15
2022-10-18T14:19:20.347Z,10.35
2022-10-18T14:22:38.817Z,9.25
2022-10-18T14:25:42.153Z,7.05
2022-10-18T14:29:01.723Z,9.10
2022-10-18T14:32:10.705Z,7.65
2022-10-18T14:35:32.425Z,7.15
2022-10-18T14:38:37.537Z,11.32
2022-10-18T14:41:52.837Z,9.43
2022-10-18T14:44:56.566Z,6.35
2022-10-18T14:48:07.749Z,9.15
2022-10-18T14:51:11.357Z,7.57
2022-10-18T14:54:19.734Z,8.13
2022-10-18T14:57:26.861Z,6.12
2022-10-18T15:00:38.118Z,7.60
2022-10-18T15:03:40.684Z,16.23
2022-10-18T15:06:44.503Z,7.68
2022-10-18T15:09:47.422Z,7.28
2022-10-18T15:13:08.679Z,5.93
2022-10-18T15:16:17.171Z,12.43
2022-10-18T15:19:22.281Z,11.80
2022-10-18T15:22:31.911Z,8.55
2022-10-18T15:25:35.930Z,8.98
2022-10-18T15:28:52.644Z,11.25
2022-10-18T15:31:55.465Z,9.95
2022-10-18T15:35:20.980Z,7.22
2022-10-18T15:38:29.063Z,5.70
2022-10-18T15:41:51.994Z,14.68
2022-10-18T15:44:54.270Z,15.48
2022-10-18T15:48:13.081Z,8.88
2022-10-18T15:51:48.169Z,12.80
2022-10-18T15:54:50.915Z,13.50
2022-10-18T15:58:04.773Z,11.12
2022-10-18T16:01:16.271Z,9.82
2022-10-18T16:04:32.760Z,11.80
2022-10-18T16:07:35.338Z,15.52
2022-10-18T16:10:38.252Z,15.85
2022-10-18T16:13:40.888Z,12.57
2022-10-18T16:16:44.284Z,11.03
2022-10-18T16:19:46.495Z,9.35
2022-10-18T16:22:49.076Z,11.35
2022-10-18T16:25:51.883Z,11.50
2022-10-18T16:28:55.661Z,16.23
2022-10-18T16:31:58.527Z,13.68
2022-10-18T16:35:01.091Z,21.83
2022-10-18T16:38:03.343Z,9.25
2022-10-18T16:41:07.592Z,11.57
2022-10-18T16:44:10.785Z,15.05
2022-10-18T16:47:13.304Z,8.93
2022-10-18T16:50:18.989Z,20.45
2022-10-18T16:53:25.287Z,13.77
2022-10-18T16:56:31.134Z,20.70
2022-10-18T16:59:33.648Z,17.52
2022-10-18T17:02:35.917Z,17.50
2022-10-18T17:05:38.635Z,12.00
2022-10-18T17:08:40.919Z,16.45
2022-10-18T17:11:43.448Z,11.40
2022-10-18T17:14:45.656Z,17.05
2022-10-18T17:17:49.988Z,11.20
2022-10-18T17:20:52.546Z,14.02
2022-10-18T17:23:55.880Z,14.52
2022-10-18T17:26:58.188Z,19.73
2022-10-18T17:30:00.834Z,14.32
2022-10-18T17:33:03.061Z,15.25
2022-10-18T17:36:05.786Z,14.82
2022-10-18T17:39:08.915Z,12.65
2022-10-18T17:42:11.516Z,19.62
2022-10-18T17:45:13.734Z,16.42
2022-10-18T17:48:16.667Z,21.30
2022-10-18T17:51:18.949Z,22.73
2022-10-18T17:54:21.476Z,17.98
2022-10-18T17:57:23.727Z,14.23
2022-10-18T18:00:26.952Z,21.37
2022-10-18T18:03:29.528Z,16.70
2022-10-18T18:06:34.488Z,16.50
2022-10-18T18:09:37.213Z,20.37
2022-10-18T18:12:39.504Z,27.10
2022-10-18T18:15:42.156Z,14.55
2022-10-18T18:18:45.361Z,13.43
2022-10-18T18:21:48.083Z,13.27
2022-10-18T18:24:50.330Z,15.60
2022-10-18T18:27:54.295Z,20.05
2022-10-18T18:30:56.903Z,16.15
2022-10-18T18:34:00.398Z,20.25
2022-10-18T18:37:02.793Z,12.82
2022-10-18T18:40:05.911Z,21.98
2022-10-18T18:43:22.635Z,21.20
2022-10-18T18:46:28.389Z,20.25
2022-10-18T18:49:31.491Z,13.27
2022-10-18T18:52:34.694Z,13.38
2022-10-18T18:55:39.732Z,16.30
2022-10-18T18:58:44.358Z,21.42
2022-10-18T19:01:46.684Z,21.15
2022-10-18T19:04:50.700Z,22.08
2022-10-18T19:07:53.008Z,20.62
2022-10-18T19:10:55.500Z,25.35
2022-10-18T19:13:57.874Z,18.60
2022-10-18T19:17:01.545Z,25.75
2022-10-18T19:20:05.139Z,20.25
2022-10-18T19:26:22.895Z,18.98
2022-10-18T19:29:31.590Z,21.73
2022-10-18T19:32:34.226Z,22.83
2022-10-18T19:35:38.295Z,26.70
2022-10-18T19:38:40.568Z,22.20
2022-10-18T19:41:43.175Z,23.08
2022-10-18T19:44:45.454Z,22.58
2022-10-18T19:47:48.058Z,22.45
2022-10-18T19:50:50.823Z,26.10
2022-10-18T19:53:54.438Z,20.73
2022-10-18T19:56:56.761Z,18.90
2022-10-18T20:00:00.738Z,23.00
2022-10-18T20:06:06.487Z,17.17
2022-10-18T20:09:13.367Z,21.40
2022-10-18T20:12:18.710Z,21.92
2022-10-18T20:15:20.952Z,21.35
2022-10-18T20:18:23.819Z,22.23
2022-10-18T20:21:28.364Z,20.37
2022-10-18T20:24:30.962Z,23.70
2022-10-18T20:27:33.733Z,21.70
2022-10-18T20:30:36.455Z,23.83
2022-10-18T20:33:39.254Z,17.48
2022-10-18T20:36:42.912Z,23.73
2022-10-18T20:39:45.621Z,20.67
2022-10-18T20:42:48.145Z,23.70
2022-10-18T20:45:56.723Z,22.08
2022-10-18T20:48:59.274Z,18.30
2022-10-18T20:52:01.476Z,26.45
2022-10-18T20:55:04.615Z,20.65
2022-10-18T20:58:06.891Z,20.17
2022-10-18T21:01:10.447Z,19.48
2022-10-18T21:04:12.759Z,21.37
2022-10-18T21:07:15.211Z,24.15
2022-10-18T21:10:17.427Z,20.70
2022-10-18T21:13:19.938Z,16.70
2022-10-18T21:16:22.292Z,17.33
2022-10-18T21:19:26.635Z,19.92
2022-10-18T21:22:28.865Z,20.27
2022-10-18T21:25:31.479Z,23.75
2022-10-18T21:28:34.436Z,20.95
2022-10-18T21:31:39.801Z,23.07
2022-10-18T21:34:42.019Z,18.08
2022-10-18T21:37:44.506Z,23.02
2022-10-18T21:40:46.771Z,23.65
2022-10-18T21:43:51.920Z,24.60
2022-10-18T21:46:55.062Z,25.33
2022-10-18T21:49:57.865Z,22.55
2022-10-18T21:53:00.117Z,21.15
2022-10-18T21:56:15.480Z,22.95
2022-10-18T21:59:17.723Z,23.38
2022-10-18T22:02:20.194Z,23.27
2022-10-18T22:05:22.727Z,24.05
2022-10-18T22:08:24.998Z,20.80
2022-10-18T22:11:34.616Z,20.73
2022-10-18T22:14:36.825Z,23.80
2022-10-18T22:17:39.316Z,20.50
2022-10-18T22:20:41.549Z,21.00
2022-10-18T22:23:49.465Z,20.88
2022-10-18T22:26:51.679Z,23.45
2022-10-18T22:29:54.176Z,24.92
2022-10-18T22:32:56.777Z,29.30
2022-10-18T22:35:59.518Z,19.47
2022-10-18T22:39:05.459Z,24.02
2022-10-18T22:42:08.089Z,29.73
2022-10-18T22:45:10.570Z,21.48
2022-10-18T22:48:13.036Z,20.92
2022-10-18T22:51:15.891Z,21.65
2022-10-18T22:54:18.497Z,26.67
2022-10-18T22:57:20.729Z,28.77
2022-10-18T23:00:23.307Z,25.05
2022-10-18T23:03:25.539Z,21.17
2022-10-18T23:06:30.974Z,23.20
2022-10-18T23:09:33.401Z,22.23
2022-10-18T23:12:36.107Z,25.98
2022-10-18T23:15:41.372Z,24.27
2022-10-18T23:18:44.067Z,26.33
2022-10-18T23:21:46.455Z,21.02
2022-10-18T23:24:48.933Z,25.45
2022-10-18T23:27:51.151Z,21.15
2022-10-18T23:30:53.632Z,21.27
2022-10-18T23:33:58.183Z,22.50
2022-10-18T23:37:00.691Z,20.27
2022-10-18T23:40:04.431Z,27.87
2022-10-18T23:43:06.945Z,26.17
2022-10-18T23:46:09.967Z,23.48
2022-10-18T23:49:12.549Z,27.45
2022-10-18T23:52:14.877Z,21.98
2022-10-18T23:55:17.422Z,19.98
2022-10-18T23:58:20.001Z,21.98
